15:21
Airports
Links
Donate
Help keep this website running!
PayPal
Bitcoin
METAR
OTBD 191500Z 12007KT CAVOK 18/16 Q1016 NOSIG
Current Weather Conditions at OTBD
VFR 15:00:00 19-01-18
Altimeter:30.00 hg
Temp:18.0°c 64°f
Dew point:16.0°c 61°f
Wind:7 knots, 8.1 mph, 4 m/s, from 120°
Visibility:6.21 statute miles
(CAVOK)
No significant weather changes expected within 2 hours.
Past METAR reports
VFR 14:00:00 19-01-18
Altimeter:30.00 hg
Temp:19.0°c 66°f
Dew point:16.0°c 61°f
Wind:7 knots, 8.1 mph, 4 m/s, from 110°
Visibility:6.21 statute miles
(CAVOK)
No significant weather changes expected within 2 hours.
OTBD 191400Z 11007KT CAVOK 19/16 Q1016 NOSIG
VFR 13:00:00 19-01-18
Altimeter:30.00 hg
Temp:20.0°c 68°f
Dew point:16.0°c 61°f
Wind:8 knots, 9.2 mph, 4 m/s, from 120°
Visibility:6.21 statute miles
(CAVOK)
No significant weather changes expected within 2 hours.
OTBD 191300Z 12008KT CAVOK 20/16 Q1016 NOSIG
VFR 12:00:00 19-01-18
Altimeter:30.00 hg
Temp:21.0°c 70°f
Dew point:15.0°c 59°f
Wind:8 knots, 9.2 mph, 4 m/s, from 120°
Visibility:6.21 statute miles
(CAVOK)
No significant weather changes expected within 2 hours.
OTBD 191200Z 12008KT CAVOK 21/15 Q1016 NOSIG
VFR 11:00:00 19-01-18
Altimeter:30.00 hg
Temp:21.0°c 70°f
Dew point:15.0°c 59°f
Wind:8 knots, 9.2 mph, 4 m/s, from 100°
Visibility:6.21 statute miles
(CAVOK)
No significant weather changes expected within 2 hours.
OTBD 191100Z 10008KT CAVOK 21/15 Q1016 NOSIG
VFR 10:00:00 19-01-18
Altimeter:30.00 hg
Temp:21.0°c 70°f
Dew point:14.0°c 57°f
Wind:9 knots, 10.4 mph, 5 m/s, from 120°
Visibility:6.21 statute miles
(CAVOK)
No significant weather changes expected within 2 hours.
OTBD 191000Z 12009KT CAVOK 21/14 Q1016 NOSIG
TAF
TAF OTBD 191056Z 1912/2018 15007KT 8000 NSC TEMPO 1920/2002 VRB02KT PROB40 TEMPO 1918/2004 3000 BR FEW010 PROB40 TEMPO 1922/2004 0800 FG SCT005
Forecast at OTBD
12:00 19-01-18 to 18:00 20-01-18
Wind:7 Knots from 150°
Visibility:4.97 statute miles
NSC
TEMPO 18:00 19-01-18 to 04:00 20-01-18
40% BR
Visibility:1.86 statute miles
1000FEW A few
TEMPO 20:00 19-01-18 to 02:00 20-01-18
Wind:2 Knots from 360°
TEMPO 22:00 19-01-18 to 04:00 20-01-18
40% FG
Visibility:0.5 statute miles
500SCT Scattered